sensor_id;sensor_type;location;lat;lon;timestamp;pressure;altitude;pressure_sealevel;temperature;humidity
68941;BME280;55982;51.476;7.552;2023-04-06T00:00:59;99951.41;;;2.77;100.00
68941;BME280;55982;51.476;7.552;2023-04-06T00:03:25;99949.69;;;2.71;100.00
68941;BME280;55982;51.476;7.552;2023-04-06T00:05:51;99955.75;;;2.70;100.00
68941;BME280;55982;51.476;7.552;2023-04-06T00:08:16;99944.53;;;2.76;100.00
68941;BME280;55982;51.476;7.552;2023-04-06T00:10:42;99950.59;;;2.84;100.00
68941;BME280;55982;51.476;7.552;2023-04-06T00:13:07;99956.56;;;2.98;100.00
68941;BME280;55982;51.476;7.552;2023-04-06T00:15:33;99953.13;;;2.96;100.00
68941;BME280;55982;51.476;7.552;2023-04-06T00:17:59;99951.44;;;2.89;100.00
68941;BME280;55982;51.476;7.552;2023-04-06T00:20:24;99944.56;;;2.82;100.00
68941;BME280;55982;51.476;7.552;2023-04-06T00:22:50;99945.41;;;2.72;100.00
68941;BME280;55982;51.476;7.552;2023-04-06T00:25:16;99944.53;;;2.64;100.00
68941;BME280;55982;51.476;7.552;2023-04-06T00:27:41;99934.19;;;2.58;100.00
68941;BME280;55982;51.476;7.552;2023-04-06T00:30:08;99938.50;;;2.54;100.00
68941;BME280;55982;51.476;7.552;2023-04-06T00:32:34;99932.47;;;2.54;100.00
68941;BME280;55982;51.476;7.552;2023-04-06T00:35:02;99930.75;;;2.56;100.00
68941;BME280;55982;51.476;7.552;2023-04-06T00:37:27;99927.31;;;2.54;100.00
68941;BME280;55982;51.476;7.552;2023-04-06T00:39:53;99927.31;;;2.60;100.00
68941;BME280;55982;51.476;7.552;2023-04-06T00:42:18;99919.56;;;2.61;100.00
68941;BME280;55982;51.476;7.552;2023-04-06T00:44:57;99922.16;;;2.63;100.00
68941;BME280;55982;51.476;7.552;2023-04-06T00:47:23;99910.09;;;2.71;100.00
68941;BME280;55982;51.476;7.552;2023-04-06T00:49:53;99910.09;;;2.80;100.00
68941;BME280;55982;51.476;7.552;2023-04-06T00:52:19;99910.09;;;2.80;100.00
68941;BME280;55982;51.476;7.552;2023-04-06T00:54:45;99908.38;;;2.85;100.00
68941;BME280;55982;51.476;7.552;2023-04-06T00:57:14;99903.19;;;2.79;100.00
68941;BME280;55982;51.476;7.552;2023-04-06T00:59:40;99906.66;;;2.75;100.00
68941;BME280;55982;51.476;7.552;2023-04-06T01:02:06;99899.78;;;2.80;100.00
68941;BME280;55982;51.476;7.552;2023-04-06T01:04:34;99900.63;;;2.88;100.00
68941;BME280;55982;51.476;7.552;2023-04-06T01:06:59;99894.59;;;2.83;100.00
68941;BME280;55982;51.476;7.552;2023-04-06T01:09:27;99897.19;;;2.80;100.00
68941;BME280;55982;51.476;7.552;2023-04-06T01:11:53;99893.72;;;2.83;100.00
68941;BME280;55982;51.476;7.552;2023-04-06T01:14:18;99892.00;;;2.85;100.00
68941;BME280;55982;51.476;7.552;2023-04-06T01:16:44;99888.56;;;2.87;100.00
68941;BME280;55982;51.476;7.552;2023-04-06T01:19:11;99881.69;;;2.89;100.00
68941;BME280;55982;51.476;7.552;2023-04-06T01:21:38;99887.72;;;2.88;100.00
68941;BME280;55982;51.476;7.552;2023-04-06T01:24:04;99880.78;;;2.90;100.00
68941;BME280;55982;51.476;7.552;2023-04-06T01:26:30;99873.91;;;2.95;100.00
68941;BME280;55982;51.476;7.552;2023-04-06T01:28:56;99879.94;;;2.94;100.00
68941;BME280;55982;51.476;7.552;2023-04-06T01:31:22;99871.31;;;2.92;100.00
68941;BME280;55982;51.476;7.552;2023-04-06T01:33:48;99872.19;;;2.97;100.00
68941;BME280;55982;51.476;7.552;2023-04-06T01:36:14;99861.84;;;2.94;100.00
68941;BME280;55982;51.476;7.552;2023-04-06T01:38:39;99860.13;;;2.98;100.00
68941;BME280;55982;51.476;7.552;2023-04-06T01:41:06;99860.13;;;2.98;100.00
68941;BME280;55982;51.476;7.552;2023-04-06T01:43:32;99860.13;;;2.99;100.00
68941;BME280;55982;51.476;7.552;2023-04-06T01:45:58;99864.44;;;3.03;100.00
68941;BME280;55982;51.476;7.552;2023-04-06T01:48:24;99860.09;;;3.10;100.00
68941;BME280;55982;51.476;7.552;2023-04-06T01:50:49;99860.09;;;3.14;100.00
68941;BME280;55982;51.476;7.552;2023-04-06T01:53:15;99854.91;;;3.20;100.00
68941;BME280;55982;51.476;7.552;2023-04-06T01:55:41;99860.88;;;3.34;100.00
68941;BME280;55982;51.476;7.552;2023-04-06T01:58:06;99847.97;;;3.31;100.00
68941;BME280;55982;51.476;7.552;2023-04-06T02:00:32;99857.44;;;3.40;100.00
68941;BME280;55982;51.476;7.552;2023-04-06T02:02:57;99861.72;;;3.39;100.00
68941;BME280;55982;51.476;7.552;2023-04-06T02:05:23;99851.38;;;3.36;100.00
68941;BME280;55982;51.476;7.552;2023-04-06T02:07:48;99851.41;;;3.33;100.00
68941;BME280;55982;51.476;7.552;2023-04-06T02:10:14;99847.94;;;3.37;100.00
68941;BME280;55982;51.476;7.552;2023-04-06T02:12:40;99855.69;;;3.37;100.00
68941;BME280;55982;51.476;7.552;2023-04-06T02:15:05;99849.66;;;3.38;100.00
68941;BME280;55982;51.476;7.552;2023-04-06T02:17:31;99854.81;;;3.41;100.00
68941;BME280;55982;51.476;7.552;2023-04-06T02:19:56;99856.56;;;3.36;100.00
68941;BME280;55982;51.476;7.552;2023-04-06T02:22:22;99849.69;;;3.35;100.00
68941;BME280;55982;51.476;7.552;2023-04-06T02:24:47;99847.94;;;3.37;100.00
68941;BME280;55982;51.476;7.552;2023-04-06T02:27:14;99853.09;;;3.40;100.00
68941;BME280;55982;51.476;7.552;2023-04-06T02:29:40;99841.84;;;3.46;100.00
68941;BME280;55982;51.476;7.552;2023-04-06T02:32:05;99849.63;;;3.47;100.00
68941;BME280;55982;51.476;7.552;2023-04-06T02:34:31;99850.44;;;3.58;100.00
68941;BME280;55982;51.476;7.552;2023-04-06T02:36:56;99842.69;;;3.55;100.00
68941;BME280;55982;51.476;7.552;2023-04-06T02:39:22;99844.44;;;3.50;100.00
68941;BME280;55982;51.476;7.552;2023-04-06T02:41:47;99838.44;;;3.47;100.00
68941;BME280;55982;51.476;7.552;2023-04-06T02:44:13;99840.09;;;3.54;100.00
68941;BME280;55982;51.476;7.552;2023-04-06T02:46:39;99847.03;;;3.49;100.00
68941;BME280;55982;51.476;7.552;2023-04-06T02:49:05;99841.00;;;3.53;100.00
68941;BME280;55982;51.476;7.552;2023-04-06T02:51:30;99838.41;;;3.50;100.00
68941;BME280;55982;51.476;7.552;2023-04-06T02:53:55;99844.47;;;3.44;100.00
68941;BME280;55982;51.476;7.552;2023-04-06T02:56:21;99839.31;;;3.37;100.00
68941;BME280;55982;51.476;7.552;2023-04-06T02:58:47;99835.88;;;3.36;100.00
68941;BME280;55982;51.476;7.552;2023-04-06T03:01:12;99840.19;;;3.37;100.00
68941;BME280;55982;51.476;7.552;2023-04-06T03:03:38;99836.78;;;3.29;100.00
68941;BME280;55982;51.476;7.552;2023-04-06T03:06:03;99841.94;;;3.32;100.00
68941;BME280;55982;51.476;7.552;2023-04-06T03:08:29;99841.09;;;3.24;100.00
68941;BME280;55982;51.476;7.552;2023-04-06T03:10:55;99837.66;;;3.28;100.00
68941;BME280;55982;51.476;7.552;2023-04-06T03:13:20;99836.78;;;3.26;100.00
68941;BME280;55982;51.476;7.552;2023-04-06T03:15:46;99839.38;;;3.26;100.00
68941;BME280;55982;51.476;7.552;2023-04-06T03:18:11;99842.84;;;3.16;100.00
68941;BME280;55982;51.476;7.552;2023-04-06T03:20:36;99832.50;;;3.22;100.00
68941;BME280;55982;51.476;7.552;2023-04-06T03:23:02;99837.66;;;3.22;100.00
68941;BME280;55982;51.476;7.552;2023-04-06T03:25:27;99832.50;;;3.22;100.00
68941;BME280;55982;51.476;7.552;2023-04-06T03:27:53;99841.94;;;3.31;100.00
68941;BME280;55982;51.476;7.552;2023-04-06T03:30:19;99837.66;;;3.25;100.00
68941;BME280;55982;51.476;7.552;2023-04-06T03:32:45;99835.91;;;3.30;100.00
68941;BME280;55982;51.476;7.552;2023-04-06T03:35:10;99829.03;;;3.32;100.00
68941;BME280;55982;51.476;7.552;2023-04-06T03:37:36;99834.16;;;3.35;100.00
68941;BME280;55982;51.476;7.552;2023-04-06T03:40:02;99834.16;;;3.35;100.00
68941;BME280;55982;51.476;7.552;2023-04-06T03:42:28;99836.72;;;3.37;100.00
68941;BME280;55982;51.476;7.552;2023-04-06T03:44:53;99833.31;;;3.32;100.00
68941;BME280;55982;51.476;7.552;2023-04-06T03:47:19;99832.44;;;3.34;100.00
68941;BME280;55982;51.476;7.552;2023-04-06T03:49:45;99836.75;;;3.34;100.00
68941;BME280;55982;51.476;7.552;2023-04-06T03:52:10;99829.00;;;3.35;100.00
68941;BME280;55982;51.476;7.552;2023-04-06T03:54:36;99835.00;;;3.39;100.00
68941;BME280;55982;51.476;7.552;2023-04-06T03:57:01;99835.84;;;3.45;100.00
68941;BME280;55982;51.476;7.552;2023-04-06T03:59:27;99834.06;;;3.56;100.00
68941;BME280;55982;51.476;7.552;2023-04-06T04:01:52;99837.53;;;3.52;100.00
68941;BME280;55982;51.476;7.552;2023-04-06T04:04:18;99823.72;;;3.56;100.00
68941;BME280;55982;51.476;7.552;2023-04-06T04:06:44;99830.59;;;3.60;100.00
68941;BME280;55982;51.476;7.552;2023-04-06T04:09:09;99838.38;;;3.54;100.00
68941;BME280;55982;51.476;7.552;2023-04-06T04:11:35;99832.34;;;3.55;100.00
68941;BME280;55982;51.476;7.552;2023-04-06T04:14:00;99838.38;;;3.54;100.00
68941;BME280;55982;51.476;7.552;2023-04-06T04:16:27;99840.09;;;3.55;100.00
68941;BME280;55982;51.476;7.552;2023-04-06T04:18:53;99837.50;;;3.55;100.00
68941;BME280;55982;51.476;7.552;2023-04-06T04:21:18;99841.00;;;3.51;100.00
68941;BME280;55982;51.476;7.552;2023-04-06T04:23:44;99838.41;;;3.48;100.00
68941;BME280;55982;51.476;7.552;2023-04-06T04:26:09;99837.53;;;3.52;100.00
68941;BME280;55982;51.476;7.552;2023-04-06T04:28:35;99834.03;;;3.59;100.00
68941;BME280;55982;51.476;7.552;2023-04-06T04:31:00;99837.47;;;3.61;100.00
68941;BME280;55982;51.476;7.552;2023-04-06T04:33:26;99831.53;;;3.47;100.00
68941;BME280;55982;51.476;7.552;2023-04-06T04:35:51;99838.41;;;3.51;100.00
68941;BME280;55982;51.476;7.552;2023-04-06T04:38:16;99834.03;;;3.62;100.00
68941;BME280;55982;51.476;7.552;2023-04-06T04:40:42;99834.03;;;3.62;98.22
68941;BME280;55982;51.476;7.552;2023-04-06T04:43:07;99836.63;;;3.62;97.59
68941;BME280;55982;51.476;7.552;2023-04-06T04:45:33;99827.97;;;3.72;95.23
68941;BME280;55982;51.476;7.552;2023-04-06T04:47:58;99827.88;;;3.85;91.51
68941;BME280;55982;51.476;7.552;2023-04-06T04:50:24;99832.22;;;3.80;92.41
68941;BME280;55982;51.476;7.552;2023-04-06T04:52:49;99833.91;;;3.81;91.76
68941;BME280;55982;51.476;7.552;2023-04-06T04:55:15;99830.53;;;3.72;92.47
68941;BME280;55982;51.476;7.552;2023-04-06T04:57:40;99831.41;;;3.70;93.29
68941;BME280;55982;51.476;7.552;2023-04-06T05:00:06;99830.56;;;3.63;93.82
68941;BME280;55982;51.476;7.552;2023-04-06T05:02:32;99826.28;;;3.62;93.32
68941;BME280;55982;51.476;7.552;2023-04-06T05:04:57;99830.56;;;3.63;93.87
68941;BME280;55982;51.476;7.552;2023-04-06T05:07:23;99832.31;;;3.63;95.95
68941;BME280;55982;51.476;7.552;2023-04-06T05:09:48;99830.66;;;3.51;98.02
68941;BME280;55982;51.476;7.552;2023-04-06T05:12:20;99822.06;;;3.43;100.00
68941;BME280;55982;51.476;7.552;2023-04-06T05:14:49;99828.94;;;3.44;100.00
68941;BME280;55982;51.476;7.552;2023-04-06T05:17:18;99822.06;;;3.43;100.00
68941;BME280;55982;51.476;7.552;2023-04-06T05:19:52;99821.19;;;3.44;100.00
68941;BME280;55982;51.476;7.552;2023-04-06T05:22:21;99823.78;;;3.44;100.00
68941;BME280;55982;51.476;7.552;2023-04-06T05:24:47;99822.06;;;3.40;100.00
68941;BME280;55982;51.476;7.552;2023-04-06T05:27:18;99823.78;;;3.38;100.00
68941;BME280;55982;51.476;7.552;2023-04-06T05:29:44;99816.91;;;3.37;100.00
68941;BME280;55982;51.476;7.552;2023-04-06T05:32:28;99815.19;;;3.39;100.00
68941;BME280;55982;51.476;7.552;2023-04-06T05:34:54;99823.75;;;3.50;100.00
68941;BME280;55982;51.476;7.552;2023-04-06T05:37:25;99825.44;;;3.57;100.00
68941;BME280;55982;51.476;7.552;2023-04-06T05:39:51;99823.66;;;3.65;99.21
68941;BME280;55982;51.476;7.552;2023-04-06T05:42:22;99826.22;;;3.71;99.31
68941;BME280;55982;51.476;7.552;2023-04-06T05:44:48;99823.59;;;3.78;96.44
68941;BME280;55982;51.476;7.552;2023-04-06T05:47:23;99826.13;;;3.90;95.08
68941;BME280;55982;51.476;7.552;2023-04-06T05:49:54;99832.09;;;4.01;93.10
68941;BME280;55982;51.476;7.552;2023-04-06T05:52:28;99826.84;;;4.13;90.28
68941;BME280;55982;51.476;7.552;2023-04-06T05:54:54;99825.91;;;4.20;88.54
68941;BME280;55982;51.476;7.552;2023-04-06T05:57:20;99827.59;;;4.28;88.80
68941;BME280;55982;51.476;7.552;2023-04-06T05:59:49;99831.81;;;4.37;88.06
68941;BME280;55982;51.476;7.552;2023-04-06T06:02:15;99834.31;;;4.46;87.66
68941;BME280;55982;51.476;7.552;2023-04-06T06:04:40;99842.88;;;4.54;86.65
68941;BME280;55982;51.476;7.552;2023-04-06T06:07:09;99834.19;;;4.59;86.61
68941;BME280;55982;51.476;7.552;2023-04-06T06:09:35;99828.03;;;4.71;85.54
68941;BME280;55982;51.476;7.552;2023-04-06T06:12:00;99828.91;;;4.72;84.75
68941;BME280;55982;51.476;7.552;2023-04-06T06:14:32;99830.50;;;4.88;86.95
68941;BME280;55982;51.476;7.552;2023-04-06T06:16:57;99820.94;;;4.91;84.28
68941;BME280;55982;51.476;7.552;2023-04-06T06:19:23;99829.44;;;5.02;81.80
68941;BME280;55982;51.476;7.552;2023-04-06T06:22:04;99824.13;;;5.16;80.40
68941;BME280;55982;51.476;7.552;2023-04-06T06:24:30;99824.81;;;5.31;79.45
68941;BME280;55982;51.476;7.552;2023-04-06T06:26:59;99821.22;;;5.41;80.10
68941;BME280;55982;51.476;7.552;2023-04-06T06:29:28;99825.41;;;5.51;77.93
68941;BME280;55982;51.476;7.552;2023-04-06T06:31:53;99828.72;;;5.64;75.62
68941;BME280;55982;51.476;7.552;2023-04-06T06:34:19;99820.81;;;5.72;75.30
68941;BME280;55982;51.476;7.552;2023-04-06T06:36:45;99820.63;;;5.87;74.91
68941;BME280;55982;51.476;7.552;2023-04-06T06:39:14;99833.59;;;5.90;73.60
68941;BME280;55982;51.476;7.552;2023-04-06T06:41:48;99827.31;;;6.01;72.73
68941;BME280;55982;51.476;7.552;2023-04-06T06:44:13;99832.38;;;6.12;72.56
68941;BME280;55982;51.476;7.552;2023-04-06T06:46:39;99828.72;;;6.25;71.22
68941;BME280;55982;51.476;7.552;2023-04-06T06:49:05;99830.16;;;6.42;72.24
68941;BME280;55982;51.476;7.552;2023-04-06T06:51:42;99831.72;;;6.53;71.72
68941;BME280;55982;51.476;7.552;2023-04-06T06:54:14;99831.41;;;6.71;71.68
68941;BME280;55982;51.476;7.552;2023-04-06T06:56:40;99823.34;;;6.84;70.35
68941;BME280;55982;51.476;7.552;2023-04-06T06:59:06;99826.75;;;6.89;68.33
68941;BME280;55982;51.476;7.552;2023-04-06T07:01:33;99822.91;;;7.08;69.28
68941;BME280;55982;51.476;7.552;2023-04-06T07:04:04;99824.50;;;7.15;68.37
68941;BME280;55982;51.476;7.552;2023-04-06T07:06:30;99819.25;;;7.18;66.93
68941;BME280;55982;51.476;7.552;2023-04-06T07:08:56;99811.97;;;7.35;66.80
68941;BME280;55982;51.476;7.552;2023-04-06T07:11:21;99822.19;;;7.45;66.65
68941;BME280;55982;51.476;7.552;2023-04-06T07:13:47;99822.56;;;7.68;65.03
68941;BME280;55982;51.476;7.552;2023-04-06T07:16:12;99825.34;;;7.98;65.47
68941;BME280;55982;51.476;7.552;2023-04-06T07:18:38;99817.84;;;8.58;64.38
68941;BME280;55982;51.476;7.552;2023-04-06T07:21:09;99825.44;;;8.99;62.76
68941;BME280;55982;51.476;7.552;2023-04-06T07:23:34;99821.16;;;9.29;61.32
68941;BME280;55982;51.476;7.552;2023-04-06T07:26:00;99818.66;;;9.24;60.11
68941;BME280;55982;51.476;7.552;2023-04-06T07:28:28;99813.47;;;9.54;59.17
68941;BME280;55982;51.476;7.552;2023-04-06T07:30:57;99822.19;;;9.82;58.97
68941;BME280;55982;51.476;7.552;2023-04-06T07:33:25;99816.19;;;10.07;58.64
68941;BME280;55982;51.476;7.552;2023-04-06T07:35:55;99815.09;;;10.16;56.85
68941;BME280;55982;51.476;7.552;2023-04-06T07:38:22;99808.03;;;10.70;56.12
68941;BME280;55982;51.476;7.552;2023-04-06T07:40:48;99807.03;;;11.24;55.23
68941;BME280;55982;51.476;7.552;2023-04-06T07:43:16;99804.63;;;10.68;55.05
68941;BME280;55982;51.476;7.552;2023-04-06T07:45:42;99809.38;;;11.06;56.28
68941;BME280;55982;51.476;7.552;2023-04-06T07:48:08;99811.38;;;10.75;55.97
68941;BME280;55982;51.476;7.552;2023-04-06T07:50:34;99807.28;;;11.64;56.37
68941;BME280;55982;51.476;7.552;2023-04-06T07:52:59;99799.66;;;11.58;54.00
68941;BME280;55982;51.476;7.552;2023-04-06T07:55:26;99810.00;;;11.61;53.03
68941;BME280;55982;51.476;7.552;2023-04-06T07:57:51;99803.78;;;12.10;55.73
68941;BME280;55982;51.476;7.552;2023-04-06T08:00:17;99804.50;;;11.68;52.11
68941;BME280;55982;51.476;7.552;2023-04-06T08:02:43;99800.66;;;12.00;52.42
68941;BME280;55982;51.476;7.552;2023-04-06T08:05:09;99798.47;;;12.11;50.53
68941;BME280;55982;51.476;7.552;2023-04-06T08:07:35;99799.13;;;13.00;51.70
68941;BME280;55982;51.476;7.552;2023-04-06T08:10:04;99801.88;;;12.76;50.16
68941;BME280;55982;51.476;7.552;2023-04-06T08:12:32;99808.22;;;12.91;50.27
68941;BME280;55982;51.476;7.552;2023-04-06T08:14:59;99805.56;;;13.13;49.42
68941;BME280;55982;51.476;7.552;2023-04-06T08:17:25;99806.22;;;12.98;49.36
68941;BME280;55982;51.476;7.552;2023-04-06T08:19:50;99808.47;;;13.27;48.06
68941;BME280;55982;51.476;7.552;2023-04-06T08:22:16;99813.06;;;13.79;47.25
68941;BME280;55982;51.476;7.552;2023-04-06T08:24:44;99818.44;;;13.95;47.65
68941;BME280;55982;51.476;7.552;2023-04-06T08:27:10;99813.31;;;14.10;48.12
68941;BME280;55982;51.476;7.552;2023-04-06T08:29:35;99811.63;;;14.28;45.59
68941;BME280;55982;51.476;7.552;2023-04-06T08:32:01;99811.44;;;14.49;45.63
68941;BME280;55982;51.476;7.552;2023-04-06T08:34:30;99813.63;;;14.04;45.06
68941;BME280;55982;51.476;7.552;2023-04-06T08:36:55;99808.78;;;14.14;46.87
68941;BME280;55982;51.476;7.552;2023-04-06T08:39:21;99806.22;;;14.12;45.89
68941;BME280;55982;51.476;7.552;2023-04-06T08:41:51;99809.97;;;14.44;45.86
68941;BME280;55982;51.476;7.552;2023-04-06T08:44:17;99806.94;;;14.34;44.97
68941;BME280;55982;51.476;7.552;2023-04-06T08:46:43;99807.03;;;14.84;44.57
68941;BME280;55982;51.476;7.552;2023-04-06T08:49:09;99800.25;;;15.30;44.21
68941;BME280;55982;51.476;7.552;2023-04-06T08:51:36;99797.50;;;14.82;43.32
68941;BME280;55982;51.476;7.552;2023-04-06T08:54:03;99797.16;;;14.18;44.29
68941;BME280;55982;51.476;7.552;2023-04-06T08:56:29;99800.78;;;15.04;46.48
68941;BME280;55982;51.476;7.552;2023-04-06T08:58:55;99798.72;;;15.58;43.19
68941;BME280;55982;51.476;7.552;2023-04-06T09:01:23;99798.97;;;15.37;42.95
68941;BME280;55982;51.476;7.552;2023-04-06T09:03:51;99802.00;;;16.57;42.01
68941;BME280;55982;51.476;7.552;2023-04-06T09:06:20;99797.94;;;16.66;41.02
68941;BME280;55982;51.476;7.552;2023-04-06T09:08:46;99805.31;;;17.76;39.38
68941;BME280;55982;51.476;7.552;2023-04-06T09:11:12;99799.06;;;17.91;39.53
68941;BME280;55982;51.476;7.552;2023-04-06T09:13:49;99797.50;;;18.69;38.71
68941;BME280;55982;51.476;7.552;2023-04-06T09:16:18;99795.19;;;18.23;37.64
68941;BME280;55982;51.476;7.552;2023-04-06T09:18:44;99789.06;;;17.54;39.70
68941;BME280;55982;51.476;7.552;2023-04-06T09:21:10;99794.63;;;17.78;39.05
68941;BME280;55982;51.476;7.552;2023-04-06T09:23:37;99797.03;;;18.50;37.15
68941;BME280;55982;51.476;7.552;2023-04-06T09:26:15;99786.28;;;18.78;36.86
68941;BME280;55982;51.476;7.552;2023-04-06T09:28:48;99787.09;;;18.66;38.14
68941;BME280;55982;51.476;7.552;2023-04-06T09:31:16;99788.00;;;18.25;37.40
68941;BME280;55982;51.476;7.552;2023-04-06T09:33:44;99788.16;;;18.63;37.04
68941;BME280;55982;51.476;7.552;2023-04-06T09:36:10;99779.03;;;19.44;36.36
68941;BME280;55982;51.476;7.552;2023-04-06T09:41:31;99769.66;;;18.22;35.91
68941;BME280;55982;51.476;7.552;2023-04-06T09:44:07;99777.94;;;17.63;37.27
68941;BME280;55982;51.476;7.552;2023-04-06T09:46:34;99771.78;;;17.77;38.15
68941;BME280;55982;51.476;7.552;2023-04-06T09:49:05;99772.19;;;17.27;36.74
68941;BME280;55982;51.476;7.552;2023-04-06T09:51:38;99778.38;;;17.42;35.26
68941;BME280;55982;51.476;7.552;2023-04-06T09:54:05;99767.00;;;16.97;37.75
68941;BME280;55982;51.476;7.552;2023-04-06T09:56:42;99767.66;;;17.29;38.19
68941;BME280;55982;51.476;7.552;2023-04-06T09:59:14;99776.41;;;17.59;36.57
68941;BME280;55982;51.476;7.552;2023-04-06T10:01:46;99768.09;;;17.51;37.13
68941;BME280;55982;51.476;7.552;2023-04-06T10:06:55;99767.78;;;17.70;36.61
68941;BME280;55982;51.476;7.552;2023-04-06T10:09:25;99761.06;;;17.22;34.76
68941;BME280;55982;51.476;7.552;2023-04-06T10:11:54;99761.28;;;17.19;36.46
68941;BME280;55982;51.476;7.552;2023-04-06T10:14:20;99761.63;;;17.27;37.07
68941;BME280;55982;51.476;7.552;2023-04-06T10:16:49;99765.91;;;17.72;36.60
68941;BME280;55982;51.476;7.552;2023-04-06T10:19:22;99768.84;;;17.67;37.50
68941;BME280;55982;51.476;7.552;2023-04-06T10:22:09;99772.78;;;17.04;34.93
68941;BME280;55982;51.476;7.552;2023-04-06T10:24:36;99769.84;;;16.65;37.21
68941;BME280;55982;51.476;7.552;2023-04-06T10:27:03;99766.44;;;16.63;35.57
68941;BME280;55982;51.476;7.552;2023-04-06T10:29:47;99763.59;;;16.52;34.90
68941;BME280;55982;51.476;7.552;2023-04-06T10:32:14;99765.63;;;16.31;36.54
68941;BME280;55982;51.476;7.552;2023-04-06T10:34:45;99772.31;;;16.07;37.11
68941;BME280;55982;51.476;7.552;2023-04-06T10:37:15;99775.72;;;15.93;36.64
68941;BME280;55982;51.476;7.552;2023-04-06T10:39:53;99763.47;;;15.77;38.11
68941;BME280;55982;51.476;7.552;2023-04-06T10:42:38;99767.44;;;16.30;37.24
68941;BME280;55982;51.476;7.552;2023-04-06T10:45:19;99753.72;;;15.77;37.71
68941;BME280;55982;51.476;7.552;2023-04-06T10:47:49;99761.41;;;15.66;38.40
68941;BME280;55982;51.476;7.552;2023-04-06T10:50:15;99764.81;;;15.68;37.30
68941;BME280;55982;51.476;7.552;2023-04-06T10:52:45;99759.78;;;15.79;38.04
68941;BME280;55982;51.476;7.552;2023-04-06T10:55:13;99755.13;;;15.84;39.24
68941;BME280;55982;51.476;7.552;2023-04-06T10:57:39;99754.53;;;16.56;37.80
68941;BME280;55982;51.476;7.552;2023-04-06T11:00:06;99754.09;;;16.47;39.13
68941;BME280;55982;51.476;7.552;2023-04-06T11:02:35;99749.75;;;16.46;37.49
68941;BME280;55982;51.476;7.552;2023-04-06T11:05:04;99747.44;;;16.86;38.91
68941;BME280;55982;51.476;7.552;2023-04-06T11:07:47;99748.78;;;17.35;37.58
68941;BME280;55982;51.476;7.552;2023-04-06T11:10:21;99752.59;;;17.17;36.01
68941;BME280;55982;51.476;7.552;2023-04-06T11:12:54;99742.81;;;18.14;35.03
68941;BME280;55982;51.476;7.552;2023-04-06T11:15:20;99748.44;;;17.55;34.60
68941;BME280;55982;51.476;7.552;2023-04-06T11:17:49;99745.38;;;17.75;34.89
68941;BME280;55982;51.476;7.552;2023-04-06T11:20:15;99738.56;;;17.85;36.45
68941;BME280;55982;51.476;7.552;2023-04-06T11:22:51;99754.59;;;17.96;36.24
68941;BME280;55982;51.476;7.552;2023-04-06T11:25:18;99749.13;;;18.53;34.19
68941;BME280;55982;51.476;7.552;2023-04-06T11:27:51;99742.91;;;18.79;36.62
68941;BME280;55982;51.476;7.552;2023-04-06T11:30:22;99739.66;;;19.00;33.97
68941;BME280;55982;51.476;7.552;2023-04-06T11:32:48;99733.59;;;18.86;33.90
68941;BME280;55982;51.476;7.552;2023-04-06T11:35:22;99736.69;;;17.03;34.50
68941;BME280;55982;51.476;7.552;2023-04-06T11:37:51;99741.44;;;16.38;36.36
68941;BME280;55982;51.476;7.552;2023-04-06T11:40:23;99732.13;;;16.02;38.20
68941;BME280;55982;51.476;7.552;2023-04-06T11:42:54;99723.81;;;16.69;37.75
68941;BME280;55982;51.476;7.552;2023-04-06T11:45:20;99731.53;;;16.72;36.19
68941;BME280;55982;51.476;7.552;2023-04-06T11:47:59;99731.53;;;16.58;36.67
68941;BME280;55982;51.476;7.552;2023-04-06T11:50:25;99725.22;;;16.44;37.15
68941;BME280;55982;51.476;7.552;2023-04-06T11:53:01;99716.38;;;16.45;37.02
68941;BME280;55982;51.476;7.552;2023-04-06T11:55:28;99718.41;;;16.56;37.11
68941;BME280;55982;51.476;7.552;2023-04-06T11:57:53;99714.16;;;16.54;36.70
68941;BME280;55982;51.476;7.552;2023-04-06T12:00:20;99720.09;;;17.01;36.20
68941;BME280;55982;51.476;7.552;2023-04-06T12:02:47;99714.63;;;17.32;36.59
68941;BME280;55982;51.476;7.552;2023-04-06T12:05:13;99712.13;;;16.87;37.98
68941;BME280;55982;51.476;7.552;2023-04-06T12:07:39;99716.50;;;17.02;37.65
68941;BME280;55982;51.476;7.552;2023-04-06T12:10:05;99705.06;;;16.73;37.73
68941;BME280;55982;51.476;7.552;2023-04-06T12:12:30;99718.31;;;16.12;38.22
68941;BME280;55982;51.476;7.552;2023-04-06T12:14:56;99712.72;;;15.56;38.83
68941;BME280;55982;51.476;7.552;2023-04-06T12:17:22;99714.78;;;15.51;39.80
68941;BME280;55982;51.476;7.552;2023-04-06T12:19:48;99716.47;;;15.68;39.52
68941;BME280;55982;51.476;7.552;2023-04-06T12:22:13;99719.63;;;15.74;40.28
68941;BME280;55982;51.476;7.552;2023-04-06T12:24:39;99711.38;;;15.80;40.79
68941;BME280;55982;51.476;7.552;2023-04-06T12:27:05;99706.31;;;16.07;38.94
68941;BME280;55982;51.476;7.552;2023-04-06T12:29:30;99715.06;;;16.23;38.39
68941;BME280;55982;51.476;7.552;2023-04-06T12:31:56;99708.78;;;16.10;39.48
68941;BME280;55982;51.476;7.552;2023-04-06T12:34:21;99704.91;;;15.86;39.88
68941;BME280;55982;51.476;7.552;2023-04-06T12:36:46;99706.81;;;16.59;39.73
68941;BME280;55982;51.476;7.552;2023-04-06T12:39:12;99701.44;;;16.44;40.56
68941;BME280;55982;51.476;7.552;2023-04-06T12:41:37;99702.97;;;16.78;39.44
68941;BME280;55982;51.476;7.552;2023-04-06T12:44:05;99696.47;;;17.12;38.54
68941;BME280;55982;51.476;7.552;2023-04-06T12:46:31;99707.41;;;17.06;39.52
68941;BME280;55982;51.476;7.552;2023-04-06T12:48:56;99701.97;;;16.81;39.80
68941;BME280;55982;51.476;7.552;2023-04-06T12:51:24;99700.63;;;17.16;40.40
68941;BME280;55982;51.476;7.552;2023-04-06T12:53:52;99698.00;;;17.85;38.14
68941;BME280;55982;51.476;7.552;2023-04-06T12:56:18;99684.38;;;16.80;38.59
68941;BME280;55982;51.476;7.552;2023-04-06T12:58:44;99681.63;;;16.37;39.59
68941;BME280;55982;51.476;7.552;2023-04-06T13:01:10;99685.69;;;16.59;40.49
68941;BME280;55982;51.476;7.552;2023-04-06T13:03:38;99694.69;;;17.26;41.24
68941;BME280;55982;51.476;7.552;2023-04-06T13:06:04;99695.53;;;16.99;40.01
68941;BME280;55982;51.476;7.552;2023-04-06T13:08:29;99694.41;;;16.89;40.15